Time;durP1;ratioP1;P1;durP2;ratioP2;P2;SDS_P1;SDS_P2;PMS_P1;PMS_P2;Temp;Humidity;BMP_temperature;BMP_pressure;BME280_temperature;BME280_humidity;BME280_pressure;Samples;Min_cycle;Max_cycle;Signal;HPM_P1;HPM_P2
2021/01/04 00:01:49;;;;;;;21.25;13.38;;;2.90;70.10;;;;;;6243450;23;20154;-72
2021/01/04 00:04:42;;;;;;;21.15;12.60;;;2.90;70.30;;;;;;6241818;23;20199;-73
2021/01/04 00:07:28;;;;;;;22.25;12.20;;;3.00;70.40;;;;;;6242599;23;20170;-72
2021/01/04 00:10:17;;;;;;;17.20;11.27;;;2.90;70.20;;;;;;6242314;23;20154;-72
2021/01/04 00:12:50;;;;;;;19.90;12.00;;;3.00;70.20;;;;;;6243446;23;20185;-72
2021/01/04 00:15:23;;;;;;;18.77;12.30;;;2.90;70.00;;;;;;6241637;23;20300;-72
2021/01/04 00:18:11;;;;;;;21.15;11.43;;;2.90;70.50;;;;;;6243691;23;20158;-72
2021/01/04 00:20:47;;;;;;;18.30;10.70;;;3.00;70.90;;;;;;6242443;23;20158;-72
2021/01/04 00:23:25;;;;;;;18.85;11.82;;;2.90;70.50;;;;;;6242654;23;20887;-72
2021/01/04 00:25:56;;;;;;;18.25;11.50;;;2.90;70.00;;;;;;6242364;23;20154;-72
2021/01/04 00:28:28;;;;;;;16.50;10.20;;;3.00;69.30;;;;;;6242805;23;20182;-73
2021/01/04 00:30:59;;;;;;;15.93;10.88;;;2.90;69.00;;;;;;6243549;23;20596;-72
2021/01/04 00:33:30;;;;;;;14.10;9.13;;;3.00;69.30;;;;;;6242229;23;20185;-72
2021/01/04 00:36:00;;;;;;;19.65;12.50;;;3.00;69.30;;;;;;6243490;23;20154;-72
2021/01/04 00:39:03;;;;;;;17.65;10.88;;;3.00;68.70;;;;;;6241415;23;20616;-71
2021/01/04 00:41:43;;;;;;;16.52;11.15;;;2.90;68.50;;;;;;6243573;23;20154;-72
2021/01/04 00:44:17;;;;;;;18.23;11.60;;;2.90;68.50;;;;;;6241803;23;20153;-71
2021/01/04 00:46:48;;;;;;;14.50;10.27;;;2.90;68.40;;;;;;6243755;23;20204;-71
2021/01/04 00:49:27;;;;;;;15.15;10.98;;;2.80;68.50;;;;;;6241642;23;20162;-73
2021/01/04 00:52:15;;;;;;;17.63;10.82;;;2.80;68.40;;;;;;6243124;23;20564;-73
2021/01/04 00:55:06;;;;;;;20.33;11.68;;;2.80;68.40;;;;;;6241722;23;20173;-72
2021/01/04 00:58:13;;;;;;;16.00;11.60;;;2.90;68.60;;;;;;6242831;23;20165;-72
2021/01/04 01:00:50;;;;;;;16.77;11.75;;;2.90;68.30;;;;;;6241260;23;20158;-73
2021/01/04 01:03:45;;;;;;;20.50;11.93;;;2.80;68.40;;;;;;6243394;23;20154;-72
2021/01/04 01:06:24;;;;;;;22.50;11.00;;;2.80;68.60;;;;;;6242343;23;20659;-73
2021/01/04 01:08:54;;;;;;;16.30;11.30;;;2.80;68.90;;;;;;6243351;23;20157;-72
2021/01/04 01:11:25;;;;;;;16.98;10.48;;;2.80;68.90;;;;;;6242148;23;20277;-72
2021/01/04 01:13:59;;;;;;;20.52;11.52;;;2.80;68.80;;;;;;6243015;23;20154;-72
2021/01/04 01:16:57;;;;;;;20.73;11.13;;;2.80;69.30;;;;;;6243218;23;20196;-72
2021/01/04 01:19:28;;;;;;;19.73;9.52;;;2.70;69.70;;;;;;6241991;23;20204;-72
2021/01/04 01:21:55;;;;;;;15.43;10.35;;;2.80;69.70;;;;;;6242461;23;20166;-72
2021/01/04 01:24:24;;;;;;;18.90;10.30;;;2.80;69.50;;;;;;6241944;23;20200;-72
2021/01/04 01:27:17;;;;;;;17.58;11.23;;;2.70;70.00;;;;;;6243290;23;20173;-72
2021/01/04 01:30:19;;;;;;;20.05;11.82;;;2.70;69.30;;;;;;6243378;23;20477;-71
2021/01/04 01:33:10;;;;;;;18.25;11.77;;;2.70;69.20;;;;;;6242413;23;20224;-71
2021/01/04 01:36:01;;;;;;;17.10;10.05;;;2.70;69.70;;;;;;6243390;23;20237;-73
2021/01/04 01:38:49;;;;;;;14.45;9.05;;;2.70;69.80;;;;;;6242731;23;20154;-72
2021/01/04 01:42:00;;;;;;;15.60;10.13;;;2.80;70.00;;;;;;6242900;23;20185;-72
2021/01/04 01:44:32;;;;;;;16.77;10.48;;;2.70;69.60;;;;;;6242413;23;21093;-72
2021/01/04 01:47:03;;;;;;;17.98;10.68;;;2.70;69.50;;;;;;6242976;23;20255;-71
2021/01/04 01:50:01;;;;;;;19.60;10.63;;;2.80;70.20;;;;;;6242397;23;20161;-72
2021/01/04 01:52:41;;;;;;;17.75;11.82;;;2.80;69.40;;;;;;6243192;23;20182;-71
2021/01/04 01:55:43;;;;;;;19.58;12.43;;;2.80;69.20;;;;;;6244792;23;20161;-71
2021/01/04 01:58:39;;;;;;;18.52;10.73;;;2.80;69.00;;;;;;6150536;23;20163;-72
2021/01/04 02:01:11;;;;;;;15.68;9.57;;;2.80;68.80;;;;;;6177249;23;20177;-72
2021/01/04 02:03:46;;;;;;;18.77;10.52;;;2.90;68.70;;;;;;6244437;23;20185;-72
2021/01/04 02:06:25;;;;;;;17.02;11.68;;;2.80;68.80;;;;;;6245049;23;20157;-72
2021/01/04 02:08:59;;;;;;;16.30;10.45;;;2.80;68.90;;;;;;6245490;23;20537;-72
2021/01/04 02:11:37;;;;;;;17.00;9.98;;;2.80;68.40;;;;;;6245059;23;20150;-71
2021/01/04 02:14:10;;;;;;;21.00;11.70;;;2.90;68.40;;;;;;6245048;23;20154;-71
2021/01/04 02:17:02;;;;;;;16.92;12.00;;;2.80;68.10;;;;;;6244847;23;20225;-71
2021/01/04 02:19:42;;;;;;;17.25;11.95;;;2.80;68.10;;;;;;6244521;23;20181;-71
2021/01/04 02:22:45;;;;;;;15.32;10.73;;;2.80;68.10;;;;;;6244966;23;20627;-72
2021/01/04 02:25:14;;;;;;;18.40;11.73;;;2.80;68.20;;;;;;6244236;23;20149;-73
2021/01/04 02:27:45;;;;;;;20.38;11.80;;;2.80;68.10;;;;;;6244832;23;20606;-72
2021/01/04 02:30:13;;;;;;;15.27;11.05;;;2.80;67.90;;;;;;6244578;23;20154;-72
2021/01/04 02:32:40;;;;;;;17.17;11.00;;;2.80;67.90;;;;;;6244899;23;20197;-72
2021/01/04 02:35:08;;;;;;;19.52;12.30;;;2.80;68.30;;;;;;6244772;23;20161;-72
2021/01/04 02:37:35;;;;;;;17.05;11.80;;;2.80;67.70;;;;;;6245145;23;20177;-71
2021/01/04 02:40:05;;;;;;;16.15;10.75;;;2.80;67.50;;;;;;6244769;23;20549;-71
2021/01/04 02:42:35;;;;;;;17.55;12.27;;;2.80;67.20;;;;;;6244380;23;20169;-72
2021/01/04 02:45:07;;;;;;;15.40;10.00;;;2.80;67.10;;;;;;6244618;23;20241;-72
2021/01/04 02:48:02;;;;;;;17.85;12.05;;;2.80;67.70;;;;;;6244629;23;20176;-71
2021/01/04 02:50:37;;;;;;;21.17;12.43;;;2.80;67.80;;;;;;6244645;23;20206;-72
2021/01/04 02:53:17;;;;;;;18.45;12.23;;;2.80;67.20;;;;;;6244754;23;20219;-71
2021/01/04 02:56:02;;;;;;;20.35;11.43;;;2.90;67.50;;;;;;6244920;23;20192;-72
2021/01/04 02:58:45;;;;;;;19.13;11.57;;;2.80;66.70;;;;;;6244657;23;20173;-71
2021/01/04 03:01:17;;;;;;;24.10;13.50;;;2.80;66.70;;;;;;6244583;23;20156;-72
2021/01/04 03:03:48;;;;;;;26.05;12.40;;;2.80;66.20;;;;;;6244987;23;20150;-72
2021/01/04 03:06:22;;;;;;;20.90;12.55;;;2.80;66.30;;;;;;6244651;23;20177;-71
2021/01/04 03:08:48;;;;;;;21.65;11.25;;;2.80;66.30;;;;;;6245209;23;20257;-71
2021/01/04 03:11:17;;;;;;;20.73;11.52;;;2.80;66.30;;;;;;6244205;23;20643;-72
2021/01/04 03:13:56;;;;;;;14.68;10.02;;;2.80;66.20;;;;;;6244990;23;20216;-72
2021/01/04 03:16:32;;;;;;;19.10;12.55;;;2.80;66.00;;;;;;6244200;23;20229;-72
2021/01/04 03:19:03;;;;;;;16.90;10.70;;;2.80;65.60;;;;;;6245009;23;20158;-71
2021/01/04 03:21:30;;;;;;;18.38;12.50;;;2.80;65.40;;;;;;6244328;23;20158;-71
2021/01/04 03:23:58;;;;;;;15.77;10.63;;;2.90;64.90;;;;;;6244777;23;20296;-71
2021/01/04 03:26:27;;;;;;;19.10;12.32;;;2.80;64.10;;;;;;6245894;23;20166;-71
2021/01/04 03:28:55;;;;;;;19.80;10.93;;;2.90;64.20;;;;;;6246327;23;20166;-72
2021/01/04 03:31:22;;;;;;;14.88;9.60;;;2.80;64.00;;;;;;6246241;23;20162;-71
2021/01/04 03:33:48;;;;;;;17.95;11.40;;;2.80;62.40;;;;;;6246594;23;20276;-71
2021/01/04 03:36:17;;;;;;;19.75;12.38;;;2.80;63.00;;;;;;6246380;23;20170;-72
2021/01/04 03:38:43;;;;;;;18.13;11.40;;;2.80;63.50;;;;;;6245839;23;20223;-72
2021/01/04 03:41:11;;;;;;;18.05;11.23;;;2.80;64.30;;;;;;6246755;23;20170;-72
2021/01/04 03:43:37;;;;;;;17.17;12.43;;;2.80;64.40;;;;;;6246064;23;20617;-72
2021/01/04 03:46:05;;;;;;;20.98;12.45;;;2.80;64.00;;;;;;6246675;23;20492;-71
2021/01/04 03:48:31;;;;;;;19.77;12.63;;;2.80;64.20;;;;;;6246348;23;20173;-72
2021/01/04 03:50:58;;;;;;;18.80;12.38;;;2.80;64.50;;;;;;6245667;23;20181;-72
2021/01/04 03:53:25;;;;;;;20.42;11.73;;;2.80;64.70;;;;;;6246379;23;20280;-72
2021/01/04 03:55:51;;;;;;;16.60;10.75;;;2.80;64.90;;;;;;6246133;23;20166;-73
2021/01/04 03:58:18;;;;;;;20.52;11.73;;;2.80;65.00;;;;;;6245665;23;20231;-72
2021/01/04 04:00:44;;;;;;;15.90;10.82;;;2.80;65.20;;;;;;6246038;23;20638;-72
2021/01/04 04:03:12;;;;;;;23.80;12.18;;;2.80;65.40;;;;;;6246451;23;20184;-72
2021/01/04 04:05:38;;;;;;;16.80;11.02;;;2.80;65.60;;;;;;6247019;23;20240;-72
2021/01/04 04:08:06;;;;;;;21.23;12.15;;;2.80;65.80;;;;;;6246797;23;20173;-72
2021/01/04 04:10:32;;;;;;;22.98;11.63;;;2.80;65.80;;;;;;6246490;23;20206;-72
2021/01/04 04:12:59;;;;;;;16.70;11.95;;;2.80;65.90;;;;;;6246481;23;20193;-72
2021/01/04 04:15:25;;;;;;;20.85;12.20;;;2.70;65.60;;;;;;6246534;23;20201;-72
2021/01/04 04:17:52;;;;;;;22.33;12.55;;;2.70;65.80;;;;;;6246438;23;20492;-72
2021/01/04 04:20:22;;;;;;;21.77;12.35;;;2.70;67.00;;;;;;6245949;23;20166;-72
2021/01/04 04:22:49;;;;;;;23.05;13.05;;;2.70;65.80;;;;;;6246205;23;20166;-72
2021/01/04 04:25:17;;;;;;;19.10;11.60;;;2.70;66.00;;;;;;6246469;23;20162;-72
2021/01/04 04:27:44;;;;;;;18.58;12.15;;;2.70;66.20;;;;;;6245996;23;20248;-72
2021/01/04 04:30:15;;;;;;;21.67;12.15;;;2.70;66.20;;;;;;6246211;23;20162;-73
2021/01/04 04:32:42;;;;;;;21.88;11.50;;;2.70;66.60;;;;;;6246514;23;20284;-74
2021/01/04 04:35:11;;;;;;;20.98;11.73;;;2.60;66.70;;;;;;6246350;23;20204;-72
2021/01/04 04:37:42;;;;;;;19.55;11.45;;;2.60;66.80;;;;;;6245908;23;20166;-72
2021/01/04 04:40:14;;;;;;;20.58;11.60;;;2.60;66.10;;;;;;6246359;23;20154;-71
2021/01/04 04:42:41;;;;;;;23.27;13.27;;;2.50;64.60;;;;;;6245680;23;20228;-72
2021/01/04 04:45:14;;;;;;;18.30;9.30;;;2.50;65.40;;;;;;6246474;23;20192;-72
2021/01/04 04:48:01;;;;;;;18.63;11.35;;;2.50;65.70;;;;;;6246397;23;20154;-72
2021/01/04 04:51:02;;;;;;;19.30;12.18;;;2.50;65.80;;;;;;6246374;23;20204;-72
2021/01/04 04:53:52;;;;;;;20.75;11.80;;;2.40;65.90;;;;;;6196494;23;20193;-71
2021/01/04 04:56:40;;;;;;;18.58;12.07;;;2.40;66.20;;;;;;6246328;23;20150;-72
2021/01/04 04:59:19;;;;;;;24.83;11.13;;;2.40;66.20;;;;;;6246171;23;20150;-72
2021/01/04 05:01:54;;;;;;;21.27;12.05;;;2.40;66.30;;;;;;6245209;23;20203;-71
2021/01/04 05:04:47;;;;;;;23.00;11.82;;;2.40;66.50;;;;;;6245934;23;20160;-72
2021/01/04 05:07:26;;;;;;;19.52;12.10;;;2.40;66.40;;;;;;6245802;23;20150;-71
2021/01/04 05:09:58;;;;;;;20.38;12.88;;;2.40;66.00;;;;;;6245899;23;20585;-73
2021/01/04 05:12:47;;;;;;;20.52;12.50;;;2.40;66.00;;;;;;6245781;23;20213;-72
2021/01/04 05:15:29;;;;;;;29.38;13.63;;;2.50;66.10;;;;;;6245980;23;20243;-72
2021/01/04 05:18:27;;;;;;;17.83;10.55;;;2.50;66.20;;;;;;6245576;23;20603;-72
2021/01/04 05:21:44;;;;;;;22.13;13.15;;;2.50;66.50;;;;;;6207386;23;20162;-71
2021/01/04 05:24:41;;;;;;;19.98;12.00;;;2.50;66.00;;;;;;6245763;23;20164;-73
2021/01/04 05:27:51;;;;;;;20.33;12.73;;;2.50;66.30;;;;;;6245412;23;20617;-71
2021/01/04 05:30:34;;;;;;;18.38;12.52;;;2.50;66.10;;;;;;6246270;23;20154;-72
2021/01/04 05:33:19;;;;;;;17.27;10.15;;;2.50;65.80;;;;;;6245258;23;20766;-72
2021/01/04 05:35:48;;;;;;;17.13;10.82;;;2.50;65.10;;;;;;6246119;23;20177;-73
2021/01/04 05:38:21;;;;;;;18.48;10.93;;;2.50;64.30;;;;;;6245207;23;20176;-71
2021/01/04 05:41:13;;;;;;;22.48;11.90;;;2.50;64.10;;;;;;6245935;23;20186;-72
2021/01/04 05:43:51;;;;;;;23.05;13.30;;;2.50;64.70;;;;;;6245025;23;20630;-71
2021/01/04 05:46:24;;;;;;;15.55;10.43;;;2.50;64.80;;;;;;6245830;23;20172;-72
2021/01/04 05:49:02;;;;;;;16.35;10.27;;;2.50;63.80;;;;;;6245154;23;20185;-72
2021/01/04 05:51:32;;;;;;;21.17;10.77;;;2.40;63.60;;;;;;6245837;23;20150;-72
2021/01/04 05:53:58;;;;;;;13.18;9.20;;;2.40;63.40;;;;;;6245327;23;20198;-72
2021/01/04 05:56:27;;;;;;;19.75;11.60;;;2.40;63.50;;;;;;6245147;23;20176;-72
2021/01/04 05:59:07;;;;;;;16.25;10.75;;;2.30;63.70;;;;;;6245374;23;20161;-71
2021/01/04 06:01:35;;;;;;;20.33;11.00;;;2.40;64.20;;;;;;6245854;23;20216;-71
2021/01/04 06:04:03;;;;;;;21.55;11.05;;;2.40;63.90;;;;;;6245175;23;20165;-72
2021/01/04 06:06:38;;;;;;;16.00;8.93;;;2.40;63.40;;;;;;6245435;23;20470;-71
2021/01/04 06:09:13;;;;;;;17.30;11.05;;;2.40;63.70;;;;;;6245781;23;20149;-72
2021/01/04 06:11:48;;;;;;;14.48;9.85;;;2.50;63.60;;;;;;6245623;23;20150;-75
2021/01/04 06:14:15;;;;;;;20.02;10.15;;;2.50;63.10;;;;;;6245175;23;20216;-72
2021/01/04 06:16:45;;;;;;;17.63;10.38;;;2.40;63.10;;;;;;6245166;23;20201;-73
2021/01/04 06:19:18;;;;;;;16.70;9.50;;;2.40;62.90;;;;;;6245408;23;20169;-72
2021/01/04 06:21:48;;;;;;;19.35;11.15;;;2.40;62.90;;;;;;6245348;23;20172;-72
2021/01/04 06:24:24;;;;;;;18.00;11.57;;;2.30;63.30;;;;;;6245410;23;20639;-73
2021/01/04 06:26:52;;;;;;;16.02;9.98;;;2.30;63.30;;;;;;6244405;23;20150;-72
2021/01/04 06:29:33;;;;;;;18.67;10.80;;;2.30;63.20;;;;;;6244639;23;20617;-72
2021/01/04 06:32:03;;;;;;;17.35;10.57;;;2.30;63.40;;;;;;6245323;23;20154;-72
2021/01/04 06:34:33;;;;;;;20.42;11.63;;;2.30;63.50;;;;;;6245654;23;20208;-72
2021/01/04 06:37:09;;;;;;;20.23;11.35;;;2.20;63.80;;;;;;6245047;23;20212;-72
2021/01/04 06:39:36;;;;;;;21.20;10.45;;;2.20;63.70;;;;;;6245614;23;20188;-72
2021/01/04 06:42:16;;;;;;;19.50;10.23;;;2.20;64.60;;;;;;6244830;23;20216;-76
2021/01/04 06:44:57;;;;;;;20.35;12.02;;;2.20;65.00;;;;;;6245993;23;20154;-72
2021/01/04 06:47:42;;;;;;;19.63;10.73;;;2.10;64.40;;;;;;6244685;23;20228;-72
2021/01/04 06:50:12;;;;;;;18.08;10.35;;;2.10;64.50;;;;;;6245638;23;20173;-72
2021/01/04 06:53:34;;;;;;;19.83;11.73;;;2.10;64.90;;;;;;6245950;23;20504;-72
2021/01/04 06:56:30;;;;;;;20.67;12.60;;;2.10;65.00;;;;;;6190758;23;20169;-72
2021/01/04 06:59:28;;;;;;;20.10;11.82;;;2.10;64.90;;;;;;6244515;23;20473;-72
2021/01/04 07:02:26;;;;;;;20.65;11.40;;;2.10;65.50;;;;;;6228914;23;20174;-72
2021/01/04 07:05:34;;;;;;;20.85;10.85;;;2.10;65.10;;;;;;6164202;23;20180;-72
2021/01/04 07:08:31;;;;;;;16.73;10.07;;;2.10;65.10;;;;;;6243127;23;20161;-72
2021/01/04 07:11:10;;;;;;;20.33;10.25;;;2.00;65.30;;;;;;6230959;23;20169;-74
2021/01/04 07:14:05;;;;;;;18.00;10.68;;;2.00;65.40;;;;;;6246597;23;20503;-73
2021/01/04 07:17:07;;;;;;;19.48;11.27;;;2.10;65.50;;;;;;6246044;23;20200;-72
2021/01/04 07:19:53;;;;;;;21.48;11.10;;;2.10;65.20;;;;;;6229963;23;20161;-72
2021/01/04 07:22:31;;;;;;;19.45;10.43;;;2.20;65.10;;;;;;6246255;23;20162;-72
2021/01/04 07:25:08;;;;;;;21.27;11.43;;;2.20;64.60;;;;;;6246065;23;20154;-71
2021/01/04 07:27:50;;;;;;;18.00;10.00;;;2.20;64.60;;;;;;6244985;23;20164;-72
2021/01/04 07:30:48;;;;;;;20.35;9.95;;;2.30;64.70;;;;;;6246391;23;20185;-73
2021/01/04 07:33:31;;;;;;;18.05;11.77;;;2.30;64.20;;;;;;6237745;23;20197;-73
2021/01/04 07:36:04;;;;;;;15.98;11.00;;;2.30;64.50;;;;;;6246469;23;20190;-72
2021/01/04 07:38:45;;;;;;;18.10;11.40;;;2.30;64.70;;;;;;6246083;23;20150;-72
2021/01/04 07:41:21;;;;;;;19.73;10.30;;;2.30;65.60;;;;;;6246449;23;20623;-73
2021/01/04 07:44:24;;;;;;;21.38;11.73;;;2.30;64.60;;;;;;6245628;23;20608;-71
2021/01/04 07:47:25;;;;;;;23.33;12.20;;;2.30;64.60;;;;;;6246181;23;20150;-72
2021/01/04 07:50:25;;;;;;;21.35;11.38;;;2.40;64.30;;;;;;6243201;23;20153;-72
2021/01/04 07:53:39;;;;;;;20.50;12.70;;;2.40;64.20;;;;;;6243951;23;20181;-72
2021/01/04 07:56:44;;;;;;;18.63;11.32;;;2.50;64.50;;;;;;6245417;23;20154;-72
2021/01/04 07:59:51;;;;;;;20.63;11.73;;;2.50;64.60;;;;;;6245438;23;20169;-72
2021/01/04 08:02:57;;;;;;;17.45;10.55;;;2.50;64.40;;;;;;6245687;23;20615;-72
2021/01/04 08:05:54;;;;;;;21.38;12.00;;;2.50;64.40;;;;;;6198639;23;20204;-71
2021/01/04 08:08:36;;;;;;;26.42;13.40;;;2.40;64.10;;;;;;6241664;23;20287;-72
2021/01/04 08:11:53;;;;;;;19.38;11.25;;;2.50;64.40;;;;;;6244129;23;20615;-72
2021/01/04 08:14:49;;;;;;;17.45;11.60;;;2.60;64.30;;;;;;6243370;23;20259;-72
2021/01/04 08:17:24;;;;;;;22.85;13.82;;;2.60;64.50;;;;;;6245303;23;20494;-74
2021/01/04 08:19:56;;;;;;;26.60;13.50;;;2.60;64.80;;;;;;6245240;23;20191;-73
2021/01/04 08:22:39;;;;;;;21.88;12.88;;;2.70;64.70;;;;;;6244412;23;20604;-74
2021/01/04 08:25:13;;;;;;;23.98;12.15;;;2.70;64.50;;;;;;6245211;23;20154;-73
2021/01/04 08:27:57;;;;;;;23.98;12.80;;;2.70;64.40;;;;;;6245353;23;20514;-73
2021/01/04 08:30:29;;;;;;;24.20;12.10;;;2.80;64.30;;;;;;6243645;23;20157;-74
2021/01/04 08:33:01;;;;;;;19.48;11.25;;;2.80;63.50;;;;;;6245403;23;20190;-73
2021/01/04 08:35:36;;;;;;;15.65;10.18;;;2.80;62.80;;;;;;6244524;23;20597;-73
2021/01/04 08:38:20;;;;;;;19.20;12.27;;;2.70;62.80;;;;;;6245758;23;20196;-73
2021/01/04 08:41:00;;;;;;;20.63;11.05;;;2.70;63.10;;;;;;6241093;23;20150;-74
2021/01/04 08:43:49;;;;;;;16.98;11.30;;;2.80;63.70;;;;;;6244932;23;20480;-73
2021/01/04 08:46:36;;;;;;;15.00;9.32;;;2.70;63.70;;;;;;6232496;23;20157;-73
2021/01/04 08:49:19;;;;;;;19.20;12.05;;;2.70;63.70;;;;;;6239417;23;20157;-74
2021/01/04 08:51:51;;;;;;;19.20;10.82;;;2.70;63.50;;;;;;6239480;23;20658;-74
2021/01/04 08:54:27;;;;;;;20.15;12.70;;;2.60;63.70;;;;;;6243753;23;20182;-74
2021/01/04 08:57:20;;;;;;;24.08;11.30;;;2.60;63.20;;;;;;6243959;23;20150;-74
2021/01/04 08:59:56;;;;;;;17.20;10.57;;;2.60;63.20;;;;;;6243033;23;20654;-73
2021/01/04 09:02:34;;;;;;;16.95;10.90;;;2.60;63.60;;;;;;6244304;23;20531;-73
2021/01/04 09:05:03;;;;;;;25.25;12.88;;;2.60;63.90;;;;;;6242037;23;20197;-74
2021/01/04 09:07:32;;;;;;;20.23;11.15;;;2.60;64.20;;;;;;6244357;23;20162;-73
2021/01/04 09:10:02;;;;;;;22.52;12.88;;;2.50;64.70;;;;;;6243329;23;20287;-73
2021/01/04 09:12:39;;;;;;;18.48;11.77;;;2.40;64.50;;;;;;6239905;23;20200;-74
2021/01/04 09:15:11;;;;;;;21.63;11.48;;;2.40;64.70;;;;;;6243470;23;20201;-73
2021/01/04 09:17:46;;;;;;;18.73;10.40;;;2.50;64.90;;;;;;6244250;23;20181;-74
2021/01/04 09:20:36;;;;;;;18.63;11.82;;;2.50;64.40;;;;;;6244936;23;20160;-74
2021/01/04 09:23:08;;;;;;;18.90;10.80;;;2.50;64.00;;;;;;6244632;23;20186;-73
2021/01/04 09:25:50;;;;;;;19.20;11.27;;;2.50;64.50;;;;;;6245455;23;20252;-73
2021/01/04 09:28:21;;;;;;;23.10;13.10;;;2.60;65.00;;;;;;6243984;23;20149;-73
2021/01/04 09:30:50;;;;;;;24.30;15.25;;;2.60;65.10;;;;;;6245234;23;20150;-73
2021/01/04 09:33:20;;;;;;;22.80;13.35;;;2.70;64.80;;;;;;6244156;23;20221;-73
2021/01/04 09:35:48;;;;;;;21.95;14.18;;;2.70;64.80;;;;;;6245275;23;20484;-73
2021/01/04 09:38:20;;;;;;;25.83;13.45;;;2.80;64.50;;;;;;6244688;23;20197;-73
2021/01/04 09:40:50;;;;;;;29.30;15.15;;;2.90;64.70;;;;;;6245158;23;20158;-74
2021/01/04 09:43:21;;;;;;;20.58;12.48;;;2.90;64.60;;;;;;6244782;23;20185;-73
2021/01/04 09:45:48;;;;;;;19.25;13.35;;;2.90;64.50;;;;;;6244872;23;20260;-73
2021/01/04 09:48:24;;;;;;;24.40;14.32;;;3.00;64.40;;;;;;6245128;23;20181;-74
2021/01/04 09:50:55;;;;;;;23.23;13.80;;;3.00;64.10;;;;;;6244604;23;20913;-73
2021/01/04 09:53:29;;;;;;;23.63;13.70;;;3.00;64.20;;;;;;6245119;23;20177;-73
2021/01/04 09:56:01;;;;;;;23.17;13.18;;;3.10;63.80;;;;;;6244442;23;20166;-73
2021/01/04 09:58:27;;;;;;;28.42;15.15;;;3.10;63.50;;;;;;6244708;23;20180;-73
2021/01/04 10:01:06;;;;;;;21.55;13.40;;;3.10;63.40;;;;;;6243746;23;20170;-74
2021/01/04 10:03:33;;;;;;;21.95;13.60;;;3.10;63.10;;;;;;6245017;23;20878;-73
2021/01/04 10:06:00;;;;;;;27.75;14.80;;;3.10;63.20;;;;;;6243966;23;20161;-73
2021/01/04 10:08:29;;;;;;;25.98;14.07;;;3.10;62.80;;;;;;6244972;23;20162;-73
2021/01/04 10:10:58;;;;;;;25.52;14.05;;;3.00;62.90;;;;;;6243693;23;20770;-73
2021/01/04 10:13:26;;;;;;;20.98;12.52;;;3.00;63.00;;;;;;6244001;23;20319;-76
2021/01/04 10:16:01;;;;;;;18.88;11.65;;;3.00;63.00;;;;;;6243914;23;20236;-74
2021/01/04 10:18:51;;;;;;;23.27;12.60;;;2.90;63.70;;;;;;6244850;23;20168;-73
2021/01/04 10:21:21;;;;;;;20.23;11.98;;;2.90;63.40;;;;;;6244376;23;20154;-74
2021/01/04 10:23:54;;;;;;;22.55;12.52;;;3.00;63.80;;;;;;6243870;23;20150;-73
2021/01/04 10:26:22;;;;;;;20.80;11.50;;;3.00;63.10;;;;;;6244476;23;20150;-74
2021/01/04 10:28:49;;;;;;;22.00;12.75;;;3.00;63.00;;;;;;6242971;23;20161;-73
2021/01/04 10:31:28;;;;;;;18.73;11.50;;;3.00;62.50;;;;;;6244967;23;20493;-73
2021/01/04 10:34:07;;;;;;;21.25;11.65;;;3.00;62.80;;;;;;6244985;23;20185;-74
2021/01/04 10:36:39;;;;;;;22.23;11.95;;;2.80;62.00;;;;;;6248417;23;20153;-73
2021/01/04 10:39:15;;;;;;;21.17;12.43;;;2.80;62.00;;;;;;6247930;23;20196;-75
2021/01/04 10:41:42;;;;;;;24.05;12.15;;;2.80;62.00;;;;;;6247783;23;20172;-74
2021/01/04 10:44:14;;;;;;;19.83;12.23;;;2.70;62.60;;;;;;6247666;23;20166;-73
2021/01/04 10:46:43;;;;;;;24.65;11.80;;;2.80;62.80;;;;;;6248333;23;20181;-73
2021/01/04 10:49:24;;;;;;;24.33;13.57;;;2.80;62.50;;;;;;6248269;23;20165;-73
2021/01/04 10:51:54;;;;;;;21.88;11.90;;;2.80;63.10;;;;;;6247647;23;20611;-74
2021/01/04 10:54:22;;;;;;;25.92;12.50;;;2.70;62.40;;;;;;6247412;23;20231;-73
2021/01/04 10:57:15;;;;;;;22.60;11.93;;;2.70;62.70;;;;;;6247659;23;20162;-73
2021/01/04 10:59:48;;;;;;;19.27;11.80;;;2.70;62.00;;;;;;6247300;23;20168;-73
2021/01/04 11:02:16;;;;;;;24.75;13.93;;;2.60;62.70;;;;;;6247384;23;20165;-74
2021/01/04 11:04:55;;;;;;;18.75;11.25;;;2.60;63.70;;;;;;6247853;23;20227;-75
2021/01/04 11:07:33;;;;;;;24.05;12.73;;;2.60;63.70;;;;;;6247081;23;20161;-73
2021/01/04 11:10:14;;;;;;;20.52;13.38;;;2.70;64.00;;;;;;6240116;23;20158;-74
2021/01/04 11:12:47;;;;;;;19.88;12.40;;;2.80;63.70;;;;;;6246615;23;20472;-73
2021/01/04 11:15:24;;;;;;;20.50;12.77;;;2.90;64.10;;;;;;6246322;23;20228;-74
2021/01/04 11:17:59;;;;;;;21.55;14.07;;;3.00;63.80;;;;;;6247327;23;20154;-74
2021/01/04 11:20:30;;;;;;;23.58;12.20;;;3.00;63.20;;;;;;6247439;23;20196;-73
2021/01/04 11:23:01;;;;;;;25.20;14.65;;;3.10;63.20;;;;;;6247458;23;20165;-73
2021/01/04 11:25:27;;;;;;;24.35;13.60;;;3.10;63.00;;;;;;6247466;23;20176;-73
2021/01/04 11:27:55;;;;;;;25.88;13.70;;;3.10;62.70;;;;;;6247160;23;20464;-73
2021/01/04 11:30:29;;;;;;;24.77;14.30;;;3.10;63.10;;;;;;6247154;23;20223;-74
2021/01/04 11:32:56;;;;;;;25.00;14.55;;;3.10;62.50;;;;;;6247160;23;20180;-73
2021/01/04 11:35:22;;;;;;;27.88;13.90;;;3.10;62.50;;;;;;6247200;23;20640;-76
2021/01/04 11:37:53;;;;;;;22.98;14.50;;;3.10;63.10;;;;;;6246660;23;20165;-74
2021/01/04 11:40:20;;;;;;;22.40;13.40;;;3.20;63.30;;;;;;6247907;23;20166;-74
2021/01/04 11:42:46;;;;;;;24.23;13.65;;;3.20;62.30;;;;;;6247388;23;20694;-74
2021/01/04 11:45:18;;;;;;;29.67;17.50;;;3.20;62.20;;;;;;6247560;23;20165;-74
2021/01/04 11:47:46;;;;;;;25.73;13.70;;;3.10;62.40;;;;;;6245068;23;20246;-74
2021/01/04 11:50:18;;;;;;;22.63;13.52;;;3.10;62.90;;;;;;6245811;23;20173;-73
2021/01/04 11:52:47;;;;;;;31.45;15.63;;;3.10;63.10;;;;;;6245363;23;20404;-74
2021/01/04 11:55:17;;;;;;;28.40;17.25;;;3.10;63.20;;;;;;6241470;23;20166;-73
2021/01/04 11:57:46;;;;;;;33.90;17.83;;;3.10;63.10;;;;;;6244956;23;20252;-74
2021/01/04 12:00:14;;;;;;;26.92;16.08;;;3.20;62.70;;;;;;6240783;23;20193;-74
2021/01/04 12:02:45;;;;;;;25.58;15.23;;;3.20;62.60;;;;;;6245279;23;20162;-74
2021/01/04 12:05:16;;;;;;;22.63;14.68;;;3.20;62.40;;;;;;6245191;23;20632;-74
2021/01/04 12:07:43;;;;;;;24.27;14.25;;;3.20;62.80;;;;;;6245556;23;20633;-74
2021/01/04 12:10:12;;;;;;;26.38;14.00;;;3.20;62.50;;;;;;6244539;23;20162;-74
2021/01/04 12:12:39;;;;;;;19.20;11.73;;;3.20;62.90;;;;;;6241572;23;20172;-74
2021/01/04 12:15:07;;;;;;;27.65;13.95;;;3.20;63.10;;;;;;6244931;23;20228;-74
2021/01/04 12:17:36;;;;;;;25.23;12.77;;;3.20;62.60;;;;;;6244780;23;20166;-74
2021/01/04 12:20:03;;;;;;;22.00;12.93;;;3.20;62.60;;;;;;6244889;23;20170;-74
2021/01/04 12:22:30;;;;;;;30.08;13.13;;;3.20;62.80;;;;;;6244944;23;20185;-73
2021/01/04 12:24:56;;;;;;;23.48;14.35;;;3.20;62.40;;;;;;6245229;23;20689;-73
2021/01/04 12:27:23;;;;;;;19.80;13.20;;;3.10;61.60;;;;;;6245295;23;20173;-76
2021/01/04 12:29:51;;;;;;;20.13;12.68;;;3.10;61.70;;;;;;6244911;23;20198;-74
2021/01/04 12:32:21;;;;;;;21.45;12.90;;;3.00;62.10;;;;;;6244199;23;20240;-74
2021/01/04 12:34:48;;;;;;;20.60;12.30;;;3.00;62.50;;;;;;6245172;23;20212;-74
2021/01/04 12:37:15;;;;;;;23.50;13.60;;;3.00;62.60;;;;;;6244820;23;20644;-74
2021/01/04 12:39:43;;;;;;;22.10;14.48;;;2.90;62.20;;;;;;6245648;23;20162;-73
2021/01/04 12:42:10;;;;;;;25.13;13.93;;;2.90;62.80;;;;;;6244973;23;20512;-72
2021/01/04 12:44:38;;;;;;;21.38;13.30;;;2.90;63.20;;;;;;6245728;23;20168;-72
2021/01/04 12:47:07;;;;;;;30.40;17.05;;;2.80;63.70;;;;;;6245017;23;20215;-73
2021/01/04 12:49:34;;;;;;;24.88;12.95;;;2.90;63.80;;;;;;6245524;23;20197;-72
2021/01/04 12:52:01;;;;;;;23.35;13.55;;;2.80;62.90;;;;;;6243503;23;20170;-73
2021/01/04 12:54:38;;;;;;;22.98;13.45;;;2.70;63.10;;;;;;6242653;23;20189;-75
2021/01/04 12:57:09;;;;;;;22.55;12.73;;;2.60;63.30;;;;;;6244645;23;20192;-73
2021/01/04 12:59:47;;;;;;;24.33;12.68;;;2.60;63.60;;;;;;6244587;23;20208;-72
2021/01/04 13:02:20;;;;;;;21.58;12.52;;;2.50;63.90;;;;;;6245042;23;20154;-73
2021/01/04 13:04:50;;;;;;;21.70;12.65;;;2.60;64.30;;;;;;6244941;23;20154;-73
2021/01/04 13:07:18;;;;;;;26.08;14.60;;;2.60;64.40;;;;;;6244615;23;20680;-72
2021/01/04 13:09:51;;;;;;;25.25;14.80;;;2.70;64.40;;;;;;6242160;23;20197;-75
2021/01/04 13:12:20;;;;;;;23.75;12.70;;;2.80;64.50;;;;;;6244134;23;20153;-73
2021/01/04 13:14:49;;;;;;;24.67;14.85;;;2.80;64.30;;;;;;6244481;23;20243;-74
2021/01/04 13:17:19;;;;;;;20.83;14.05;;;2.80;64.00;;;;;;6244290;23;20238;-72
2021/01/04 13:19:46;;;;;;;22.35;13.02;;;2.90;64.10;;;;;;6244462;23;20162;-73
2021/01/04 13:22:17;;;;;;;22.88;12.95;;;2.90;64.10;;;;;;6245263;23;20543;-73
2021/01/04 13:24:47;;;;;;;24.52;14.38;;;3.00;64.00;;;;;;6243460;23;20186;-72
2021/01/04 13:27:15;;;;;;;23.90;14.15;;;3.00;63.60;;;;;;6244646;23;20240;-72